createdAt,value
2022-12-28T00:00:51.093Z,96376.00
2022-12-28T00:04:55.341Z,96374.00
2022-12-28T00:08:58.439Z,96367.00
2022-12-28T00:13:01.189Z,96376.00
2022-12-28T00:17:03.929Z,96371.00
2022-12-28T00:21:08.138Z,96366.00
2022-12-28T00:25:11.399Z,96366.00
2022-12-28T00:29:14.214Z,96360.00
2022-12-28T00:33:16.999Z,96359.00
2022-12-28T00:37:22.995Z,96349.00
2022-12-28T00:41:25.969Z,96355.00
2022-12-28T00:45:28.845Z,96349.00
2022-12-28T00:49:31.646Z,96352.00
2022-12-28T00:53:37.470Z,96354.00
2022-12-28T00:57:41.305Z,96363.00
2022-12-28T01:01:44.516Z,96365.00
2022-12-28T01:05:47.432Z,96354.00
2022-12-28T01:09:51.554Z,96343.00
2022-12-28T01:13:55.894Z,96357.00
2022-12-28T01:17:59.350Z,96374.00
2022-12-28T01:22:03.137Z,96359.00
2022-12-28T01:26:08.091Z,96356.00
2022-12-28T01:30:14.054Z,96359.00
2022-12-28T01:34:16.838Z,96363.00
2022-12-28T01:38:22.270Z,96339.00
2022-12-28T01:42:26.573Z,96342.00
2022-12-28T01:46:36.041Z,96329.00
2022-12-28T01:50:39.508Z,96315.00
2022-12-28T01:54:46.772Z,96308.00
2022-12-28T01:58:51.274Z,96299.00
2022-12-28T02:02:58.769Z,96296.00
2022-12-28T02:07:01.910Z,96303.00
2022-12-28T02:11:06.253Z,96286.00
2022-12-28T02:15:11.228Z,96289.00
2022-12-28T02:19:19.901Z,96284.00
2022-12-28T02:23:50.143Z,96271.00
2022-12-28T02:28:02.085Z,96279.00
2022-12-28T02:32:18.561Z,96282.00
2022-12-28T02:36:23.425Z,96273.00
2022-12-28T02:40:31.187Z,96278.00
2022-12-28T02:44:54.286Z,96261.00
2022-12-28T02:49:30.198Z,96264.00
2022-12-28T02:53:52.148Z,96252.00
2022-12-28T02:58:17.731Z,96237.00
2022-12-28T03:02:35.281Z,96234.00
2022-12-28T03:07:05.808Z,96227.00
2022-12-28T03:11:12.057Z,96210.00
2022-12-28T03:15:29.639Z,96202.00
2022-12-28T03:19:55.417Z,96196.00
2022-12-28T03:24:19.835Z,96200.00
2022-12-28T03:28:44.131Z,96187.00
2022-12-28T03:32:49.011Z,96185.00
2022-12-28T03:36:59.488Z,96171.00
2022-12-28T03:41:09.776Z,96154.00
2022-12-28T03:45:46.312Z,96151.00
2022-12-28T03:49:46.243Z,96156.00
2022-12-28T03:53:49.411Z,96147.00
2022-12-28T03:57:56.828Z,96141.00
2022-12-28T04:02:03.935Z,96146.00
2022-12-28T04:06:09.455Z,96140.00
2022-12-28T04:10:13.288Z,96127.00
2022-12-28T04:14:18.478Z,96133.00
2022-12-28T04:18:21.271Z,96135.00
2022-12-28T04:22:24.164Z,96139.00
2022-12-28T04:26:27.059Z,96134.00
2022-12-28T04:30:31.504Z,96140.00
2022-12-28T04:34:34.315Z,96145.00
2022-12-28T04:38:44.659Z,96134.00
2022-12-28T04:42:47.437Z,96136.00
2022-12-28T04:46:51.633Z,96142.00
2022-12-28T04:50:55.652Z,96143.00
2022-12-28T04:54:58.479Z,96140.00
2022-12-28T04:59:02.024Z,96129.00
2022-12-28T05:03:06.599Z,96130.00
2022-12-28T05:07:10.129Z,96133.00
2022-12-28T05:11:14.847Z,96129.00
2022-12-28T05:15:17.753Z,96132.00
2022-12-28T05:19:21.932Z,96111.00
2022-12-28T05:23:24.715Z,96111.00
2022-12-28T05:27:27.526Z,96099.00
2022-12-28T05:31:30.367Z,96095.00
2022-12-28T05:35:36.263Z,96096.00
2022-12-28T05:39:39.027Z,96104.00
2022-12-28T05:43:42.165Z,96103.00
2022-12-28T05:47:44.893Z,96111.00
2022-12-28T05:51:51.642Z,96113.00
2022-12-28T05:55:54.417Z,96102.00
2022-12-28T05:59:57.198Z,96097.00
2022-12-28T06:04:02.024Z,96103.00
2022-12-28T06:08:06.819Z,96101.00
2022-12-28T06:12:09.599Z,96107.00
2022-12-28T06:16:15.275Z,96108.00
2022-12-28T06:20:18.147Z,96104.00
2022-12-28T06:24:22.267Z,96115.00
2022-12-28T06:28:25.072Z,96113.00
2022-12-28T06:32:27.846Z,96108.00
2022-12-28T06:36:32.596Z,96103.00
2022-12-28T06:41:10.757Z,96096.00
2022-12-28T06:44:59.486Z,96102.00
2022-12-28T06:49:02.261Z,96106.00
2022-12-28T06:53:05.097Z,96096.00
2022-12-28T06:57:09.169Z,96103.00
2022-12-28T07:01:15.070Z,96108.00
2022-12-28T07:05:18.030Z,96112.00
2022-12-28T07:09:21.044Z,96114.00
2022-12-28T07:13:28.291Z,96122.00
2022-12-28T07:17:32.575Z,96103.00
2022-12-28T07:21:37.806Z,96102.00
2022-12-28T07:25:40.617Z,96104.00
2022-12-28T07:29:44.780Z,96103.00
2022-12-28T07:33:48.466Z,96101.00
2022-12-28T07:37:51.498Z,96100.00
2022-12-28T07:41:54.290Z,96116.00
2022-12-28T07:46:03.565Z,96108.00
2022-12-28T07:50:07.167Z,96115.00
2022-12-28T07:54:10.133Z,96102.00
2022-12-28T07:58:12.935Z,96099.00
2022-12-28T08:02:17.287Z,96101.00
2022-12-28T08:06:23.044Z,96090.00
2022-12-28T08:10:25.945Z,96103.00
2022-12-28T08:14:29.954Z,96084.00
2022-12-28T08:18:34.872Z,96091.00
2022-12-28T08:22:37.674Z,96098.00
2022-12-28T08:26:41.750Z,96116.00
2022-12-28T08:30:44.631Z,96114.00
2022-12-28T08:34:52.578Z,96110.00
2022-12-28T08:38:55.841Z,96114.00
2022-12-28T08:42:59.709Z,96106.00
2022-12-28T08:47:02.674Z,96106.00
2022-12-28T08:51:08.898Z,96098.00
2022-12-28T08:55:11.719Z,96104.00
2022-12-28T08:59:16.521Z,96093.00
2022-12-28T09:03:19.359Z,96087.00
2022-12-28T09:07:23.781Z,96089.00
2022-12-28T09:11:27.072Z,96078.00
2022-12-28T09:15:29.870Z,96077.00
2022-12-28T09:19:32.714Z,96094.00
2022-12-28T09:23:37.534Z,96087.00
2022-12-28T09:27:40.338Z,96082.00
2022-12-28T09:31:44.274Z,96064.00
2022-12-28T09:35:47.143Z,96071.00
2022-12-28T09:39:51.253Z,96068.00
2022-12-28T09:43:58.006Z,96066.00
2022-12-28T09:48:07.520Z,96060.00
2022-12-28T09:52:26.085Z,96064.00
2022-12-28T09:56:35.820Z,96063.00
2022-12-28T10:00:44.147Z,96066.00
2022-12-28T10:04:49.656Z,96050.00
2022-12-28T10:08:55.405Z,96043.00
2022-12-28T10:13:06.723Z,96036.00
2022-12-28T10:17:14.337Z,96033.00
2022-12-28T10:21:19.865Z,96024.00
2022-12-28T10:25:24.770Z,96019.00
2022-12-28T10:29:32.312Z,96013.00
2022-12-28T10:33:39.646Z,96009.00
2022-12-28T10:37:45.491Z,96005.00
2022-12-28T10:41:49.556Z,95984.00
2022-12-28T10:45:53.862Z,95986.00
2022-12-28T10:50:35.492Z,95982.00
2022-12-28T10:54:28.256Z,95983.00
2022-12-28T10:58:34.549Z,95979.00
2022-12-28T11:02:38.873Z,95976.00
2022-12-28T11:06:53.105Z,95978.00
2022-12-28T11:10:57.994Z,95977.00
2022-12-28T11:15:00.821Z,95965.00
2022-12-28T11:19:05.944Z,95966.00
2022-12-28T11:23:10.080Z,95961.00
2022-12-28T11:27:16.942Z,95960.00
2022-12-28T11:31:28.109Z,95949.00
2022-12-28T11:35:34.839Z,95945.00
2022-12-28T11:39:46.273Z,95939.00
2022-12-28T11:43:51.544Z,95940.00
2022-12-28T11:48:31.954Z,95933.00
2022-12-28T11:52:51.103Z,95932.00
2022-12-28T11:57:00.287Z,95922.00
2022-12-28T12:01:03.423Z,95919.00
2022-12-28T12:05:39.529Z,95912.00
2022-12-28T12:09:47.531Z,95911.00
2022-12-28T12:13:51.526Z,95898.00
2022-12-28T12:17:59.922Z,95902.00
2022-12-28T12:22:06.224Z,95909.00
2022-12-28T12:26:18.716Z,95900.00
2022-12-28T12:30:23.076Z,95888.00
2022-12-28T12:34:34.255Z,95883.00
2022-12-28T12:38:53.623Z,95877.00
2022-12-28T12:43:22.573Z,95865.00
2022-12-28T12:47:49.605Z,95861.00
2022-12-28T12:52:01.679Z,95856.00
2022-12-28T12:56:13.684Z,95856.00
2022-12-28T13:00:19.966Z,95842.00
2022-12-28T13:04:25.215Z,95844.00
2022-12-28T13:08:33.061Z,95843.00
2022-12-28T13:12:37.396Z,95835.00
2022-12-28T13:16:41.618Z,95843.00
2022-12-28T13:20:54.091Z,95839.00
2022-12-28T13:24:58.962Z,95833.00
2022-12-28T13:29:03.990Z,95830.00
2022-12-28T13:33:27.080Z,95824.00
2022-12-28T13:37:30.636Z,95824.00
2022-12-28T13:41:35.885Z,95831.00
2022-12-28T13:45:39.069Z,95822.00
2022-12-28T13:49:47.317Z,95822.00
2022-12-28T13:53:53.932Z,95818.00
2022-12-28T13:58:00.188Z,95818.00
2022-12-28T14:02:05.195Z,95807.00
2022-12-28T14:06:10.807Z,95805.00
2022-12-28T14:10:14.501Z,95804.00
2022-12-28T14:14:17.817Z,95803.00
2022-12-28T14:18:20.871Z,95793.00
2022-12-28T14:22:31.183Z,95797.00
2022-12-28T14:26:35.135Z,95796.00
2022-12-28T14:30:41.421Z,95787.00
2022-12-28T14:34:44.283Z,95782.00
2022-12-28T14:38:51.104Z,95784.00
2022-12-28T14:42:55.896Z,95778.00
2022-12-28T14:46:59.416Z,95776.00
2022-12-28T14:51:04.136Z,95776.00
2022-12-28T14:55:28.487Z,95774.00
2022-12-28T14:59:35.520Z,95764.00
2022-12-28T15:03:53.157Z,95760.00
2022-12-28T15:07:55.961Z,95763.00
2022-12-28T15:12:10.731Z,95772.00
2022-12-28T15:16:14.678Z,95776.00
2022-12-28T15:20:18.010Z,95775.00
2022-12-28T15:24:23.651Z,95772.00
2022-12-28T15:28:29.416Z,95780.00
2022-12-28T15:32:32.243Z,95765.00
2022-12-28T15:36:34.974Z,95759.00
2022-12-28T15:40:40.048Z,95762.00
2022-12-28T15:44:46.162Z,95767.00
2022-12-28T15:48:49.003Z,95755.00
2022-12-28T15:52:51.850Z,95747.00
2022-12-28T15:56:55.954Z,95748.00
2022-12-28T16:01:01.333Z,95758.00
2022-12-28T16:05:10.528Z,95746.00
2022-12-28T16:09:14.257Z,95742.00
2022-12-28T16:13:17.020Z,95745.00
2022-12-28T16:17:21.152Z,95738.00
2022-12-28T16:21:25.047Z,95740.00
2022-12-28T16:25:27.820Z,95731.00
2022-12-28T16:29:30.663Z,95740.00
2022-12-28T16:33:34.945Z,95748.00
2022-12-28T16:37:37.748Z,95743.00
2022-12-28T16:41:40.595Z,95739.00
2022-12-28T16:45:45.074Z,95733.00
2022-12-28T16:49:49.276Z,95725.00
2022-12-28T16:53:52.154Z,95721.00
2022-12-28T16:57:55.022Z,95706.00
2022-12-28T17:01:59.098Z,95715.00
2022-12-28T17:06:03.868Z,95714.00
2022-12-28T17:10:07.939Z,95711.00
2022-12-28T17:14:13.058Z,95705.00
2022-12-28T17:18:16.156Z,95708.00
2022-12-28T17:22:20.342Z,95709.00
2022-12-28T17:26:23.514Z,95705.00
2022-12-28T17:30:26.497Z,95707.00
2022-12-28T17:34:29.297Z,95702.00
2022-12-28T17:38:33.470Z,95700.00
2022-12-28T17:42:36.273Z,95671.00
2022-12-28T17:46:41.372Z,95682.00
2022-12-28T17:50:45.035Z,95693.00
2022-12-28T17:54:49.322Z,95691.00
2022-12-28T17:58:56.237Z,95677.00
2022-12-28T18:02:59.230Z,95693.00
2022-12-28T18:07:02.434Z,95689.00
2022-12-28T18:11:08.559Z,95684.00
2022-12-28T18:15:11.971Z,95676.00
2022-12-28T18:19:14.880Z,95680.00
2022-12-28T18:23:17.679Z,95679.00
2022-12-28T18:27:21.846Z,95673.00
2022-12-28T18:31:25.568Z,95673.00
2022-12-28T18:35:28.445Z,95673.00
2022-12-28T18:39:31.246Z,95664.00
2022-12-28T18:43:35.425Z,95661.00
2022-12-28T18:47:38.426Z,95659.00
2022-12-28T18:51:41.254Z,95663.00
2022-12-28T18:55:45.583Z,95673.00
2022-12-28T18:59:49.967Z,95655.00
2022-12-28T19:03:56.207Z,95651.00
2022-12-28T19:07:59.139Z,95642.00
2022-12-28T19:12:02.467Z,95640.00
2022-12-28T19:16:09.411Z,95635.00
2022-12-28T19:20:12.519Z,95619.00
2022-12-28T19:24:16.965Z,95632.00
2022-12-28T19:28:19.770Z,95614.00
2022-12-28T19:32:23.936Z,95610.00
2022-12-28T19:36:26.925Z,95607.00
2022-12-28T19:40:29.731Z,95597.00
2022-12-28T19:44:32.503Z,95584.00
2022-12-28T19:48:36.742Z,95574.00
2022-12-28T19:52:39.532Z,95576.00
2022-12-28T19:56:42.527Z,95576.00
2022-12-28T20:00:45.318Z,95565.00
2022-12-28T20:04:49.530Z,95580.00
2022-12-28T20:08:54.120Z,95578.00
2022-12-28T20:12:57.256Z,95572.00
2022-12-28T20:17:00.115Z,95561.00
2022-12-28T20:21:21.973Z,95557.00
2022-12-28T20:25:24.939Z,95552.00
2022-12-28T20:29:27.694Z,95544.00
2022-12-28T20:33:31.819Z,95546.00
2022-12-28T20:37:36.487Z,95550.00
2022-12-28T20:41:56.628Z,95540.00
2022-12-28T20:45:59.701Z,95542.00
2022-12-28T20:50:03.873Z,95535.00
2022-12-28T20:54:09.644Z,95536.00
2022-12-28T20:58:12.714Z,95529.00
2022-12-28T21:02:15.552Z,95528.00
2022-12-28T21:06:18.342Z,95524.00
2022-12-28T21:10:22.593Z,95521.00
2022-12-28T21:14:25.302Z,95519.00
2022-12-28T21:18:28.002Z,95511.00
2022-12-28T21:22:30.820Z,95505.00
2022-12-28T21:26:34.933Z,95510.00
2022-12-28T21:30:37.654Z,95508.00
2022-12-28T21:34:40.362Z,95503.00
2022-12-28T21:38:44.212Z,95496.00
2022-12-28T21:42:48.340Z,95488.00
2022-12-28T21:46:52.265Z,95488.00
2022-12-28T21:50:55.301Z,95479.00
2022-12-28T21:54:58.017Z,95484.00
2022-12-28T21:59:02.655Z,95476.00
2022-12-28T22:03:23.031Z,95480.00
2022-12-28T22:07:26.087Z,95482.00
2022-12-28T22:11:46.423Z,95481.00
2022-12-28T22:15:53.552Z,95471.00
2022-12-28T22:19:56.369Z,95465.00
2022-12-28T22:23:59.189Z,95462.00
2022-12-28T22:28:02.143Z,95451.00
2022-12-28T22:32:06.822Z,95454.00
2022-12-28T22:36:13.899Z,95451.00
2022-12-28T22:40:17.496Z,95462.00
2022-12-28T22:44:20.308Z,95449.00
2022-12-28T22:48:24.495Z,95448.00
2022-12-28T22:52:28.993Z,95451.00
2022-12-28T22:56:31.805Z,95447.00
2022-12-28T23:00:34.576Z,95440.00
2022-12-28T23:04:38.692Z,95437.00
2022-12-28T23:08:41.838Z,95433.00
2022-12-28T23:12:44.615Z,95432.00
2022-12-28T23:16:47.679Z,95433.00
2022-12-28T23:21:09.528Z,95427.00
2022-12-28T23:25:32.903Z,95423.00
2022-12-28T23:29:35.723Z,95417.00
2022-12-28T23:33:38.624Z,95409.00
2022-12-28T23:37:42.834Z,95406.00
2022-12-28T23:41:51.462Z,95403.00
2022-12-28T23:45:54.324Z,95397.00
2022-12-28T23:49:57.184Z,95397.00
2022-12-28T23:54:01.378Z,95403.00
2022-12-28T23:58:04.599Z,95396.00
